createdAt,value
2023-03-24T16:22:11.078Z,8.43
2023-03-24T16:24:37.542Z,6.77
2023-03-24T16:27:04.919Z,7.77
2023-03-24T16:29:31.904Z,9.33
2023-03-24T16:31:58.832Z,10.23
2023-03-24T16:34:25.548Z,8.87
2023-03-24T16:36:54.213Z,11.43
2023-03-24T16:39:26.108Z,9.67
2023-03-24T16:41:52.659Z,10.03
2023-03-24T16:44:20.884Z,10.33
2023-03-24T16:46:48.875Z,11.37
2023-03-24T16:49:17.572Z,10.77
2023-03-24T16:51:45.296Z,9.87
2023-03-24T16:54:11.815Z,9.87
2023-03-24T16:56:38.936Z,10.67
2023-03-24T16:59:05.905Z,10.50
2023-03-24T17:01:33.857Z,12.10
2023-03-24T17:04:04.215Z,13.67
2023-03-24T17:06:32.766Z,15.60
2023-03-24T17:08:59.574Z,12.70
2023-03-24T17:11:37.199Z,16.63
2023-03-24T17:14:08.269Z,18.00
2023-03-24T17:16:37.016Z,17.07
2023-03-24T17:19:07.903Z,27.60
2023-03-24T17:21:37.263Z,28.00
2023-03-24T17:24:06.732Z,26.60
2023-03-24T17:26:33.214Z,18.80
2023-03-24T17:28:59.701Z,23.37
2023-03-24T17:31:26.268Z,20.67
2023-03-24T17:33:52.817Z,17.47
2023-03-24T17:36:19.442Z,18.90
2023-03-24T17:38:48.930Z,16.77
2023-03-24T17:41:15.927Z,22.87
2023-03-24T17:43:42.473Z,27.50
2023-03-24T17:46:09.021Z,34.60
2023-03-24T17:48:37.201Z,26.73
2023-03-24T17:51:04.915Z,26.93
2023-03-24T17:53:33.581Z,27.73
2023-03-24T17:56:05.514Z,32.00
2023-03-24T17:58:33.871Z,25.03
2023-03-24T18:01:07.756Z,24.93
2023-03-24T18:03:37.655Z,24.73
2023-03-24T18:06:08.934Z,35.77
2023-03-24T18:08:36.200Z,28.23
2023-03-24T18:11:08.215Z,23.70
2023-03-24T18:13:34.744Z,34.03
2023-03-24T18:16:13.371Z,27.83
2023-03-24T18:18:46.957Z,26.67
2023-03-24T18:21:14.692Z,22.17
2023-03-24T18:23:41.179Z,20.87
2023-03-24T18:26:08.984Z,20.90
2023-03-24T18:28:37.830Z,20.80
2023-03-24T18:31:12.662Z,19.57
2023-03-24T18:33:42.701Z,16.83
2023-03-24T18:36:10.325Z,16.23
2023-03-24T18:38:37.062Z,13.73
2023-03-24T18:41:06.581Z,16.30
2023-03-24T18:43:41.168Z,15.70
2023-03-24T18:46:10.014Z,14.93
2023-03-24T18:48:41.819Z,18.37
2023-03-24T18:51:08.676Z,13.37
2023-03-24T18:53:35.431Z,12.83
2023-03-24T18:56:02.633Z,13.77
2023-03-24T18:58:29.713Z,12.73
2023-03-24T19:00:57.620Z,12.83
2023-03-24T19:03:25.286Z,13.13
2023-03-24T19:05:55.065Z,10.70
2023-03-24T19:08:22.101Z,15.43
2023-03-24T19:10:49.045Z,14.80
2023-03-24T19:13:16.933Z,17.50
2023-03-24T19:15:47.242Z,10.30
2023-03-24T19:18:14.023Z,14.17
2023-03-24T19:20:41.988Z,11.77
2023-03-24T19:23:08.924Z,18.67
2023-03-24T19:25:35.407Z,12.83
2023-03-24T19:28:01.902Z,15.07
2023-03-24T19:30:29.439Z,14.20
2023-03-24T19:32:56.874Z,13.27
2023-03-24T19:35:23.683Z,15.00
2023-03-24T19:37:50.380Z,14.50
2023-03-24T19:40:16.998Z,17.67
2023-03-24T19:42:45.053Z,17.80
2023-03-24T19:45:14.300Z,17.77
2023-03-24T19:47:40.987Z,18.43
2023-03-24T19:50:08.050Z,18.83
2023-03-24T19:52:35.124Z,15.77
2023-03-24T19:55:02.256Z,17.10
2023-03-24T19:57:32.938Z,18.50
2023-03-24T19:59:59.430Z,18.97
2023-03-24T20:02:26.363Z,22.43
2023-03-24T20:04:55.157Z,19.70
2023-03-24T20:07:23.059Z,21.73
2023-03-24T20:09:49.589Z,21.60
2023-03-24T20:12:16.266Z,23.33
2023-03-24T20:14:42.820Z,18.30
2023-03-24T20:17:16.576Z,22.93
2023-03-24T20:19:43.293Z,26.00
2023-03-24T20:22:09.810Z,23.43
2023-03-24T20:24:38.677Z,21.17
2023-03-24T20:27:06.776Z,18.33
2023-03-24T20:29:33.646Z,17.03
2023-03-24T20:32:00.472Z,15.20
2023-03-24T20:34:27.221Z,15.70
2023-03-24T20:36:53.776Z,15.60
2023-03-24T20:39:20.555Z,15.53
2023-03-24T20:41:47.105Z,19.60
2023-03-24T20:44:13.607Z,18.17
2023-03-24T20:46:40.226Z,20.13
2023-03-24T20:49:08.353Z,19.63
2023-03-24T20:51:34.933Z,16.97
2023-03-24T20:54:01.653Z,18.57
2023-03-24T20:56:28.238Z,16.33
2023-03-24T20:58:54.794Z,17.43
2023-03-24T21:01:22.142Z,20.83
2023-03-24T21:03:51.064Z,17.10
2023-03-24T21:06:18.168Z,19.77
2023-03-24T21:08:45.474Z,19.90
2023-03-24T21:11:12.817Z,19.20
2023-03-24T21:13:39.822Z,16.10
2023-03-24T21:16:08.847Z,17.97
2023-03-24T21:18:36.948Z,21.43
2023-03-24T21:21:05.693Z,19.13
2023-03-24T21:23:34.173Z,20.00
2023-03-24T21:26:02.776Z,18.70
2023-03-24T21:28:31.036Z,19.27
2023-03-24T21:30:58.615Z,17.33
2023-03-24T21:33:25.538Z,15.03
2023-03-24T21:35:55.155Z,11.47
2023-03-24T21:38:21.731Z,12.93
2023-03-24T21:40:48.232Z,12.83
2023-03-24T21:43:14.875Z,10.00
2023-03-24T21:45:46.334Z,11.73
2023-03-24T21:48:14.060Z,10.50
2023-03-24T21:50:42.696Z,11.23
2023-03-24T21:53:15.075Z,12.23
2023-03-24T21:55:48.775Z,14.60
2023-03-24T21:58:15.779Z,10.33
2023-03-24T22:00:42.264Z,10.97
2023-03-24T22:03:08.871Z,12.77
2023-03-24T22:05:38.820Z,13.70
2023-03-24T22:08:06.950Z,18.53
2023-03-24T22:10:42.454Z,10.63
2023-03-24T22:13:10.329Z,12.60
2023-03-24T22:15:36.960Z,12.13
2023-03-24T22:18:04.348Z,12.30
2023-03-24T22:20:32.066Z,12.03
2023-03-24T22:23:04.384Z,11.87
2023-03-24T22:25:32.084Z,18.57
2023-03-24T22:27:58.652Z,12.57
2023-03-24T22:30:25.176Z,11.47
2023-03-24T22:32:51.785Z,12.10
2023-03-24T22:35:18.531Z,14.07
2023-03-24T22:37:45.237Z,11.53
2023-03-24T22:40:11.802Z,10.53
2023-03-24T22:42:38.472Z,16.73
2023-03-24T22:45:05.651Z,12.63
2023-03-24T22:47:32.202Z,11.90
2023-03-24T22:49:58.793Z,11.03
2023-03-24T22:52:27.662Z,11.53
2023-03-24T22:54:54.554Z,9.60
2023-03-24T22:57:21.091Z,10.77
2023-03-24T22:59:47.659Z,12.40
2023-03-24T23:02:14.224Z,10.70
2023-03-24T23:04:41.735Z,8.37
2023-03-24T23:07:08.327Z,9.37
2023-03-24T23:09:34.829Z,11.20
2023-03-24T23:12:01.494Z,14.07
2023-03-24T23:14:28.058Z,11.90
2023-03-24T23:16:56.291Z,11.10
2023-03-24T23:19:23.227Z,10.70
2023-03-24T23:21:49.783Z,10.93
2023-03-24T23:24:16.993Z,12.20
2023-03-24T23:26:43.731Z,14.37
2023-03-24T23:29:10.237Z,10.27
2023-03-24T23:31:36.921Z,11.30
2023-03-24T23:34:07.394Z,12.10
2023-03-24T23:36:34.230Z,10.43
2023-03-24T23:39:01.057Z,15.73
2023-03-24T23:41:27.659Z,13.57
2023-03-24T23:43:54.996Z,12.97
2023-03-24T23:46:23.803Z,11.03
2023-03-24T23:48:50.863Z,10.80
2023-03-24T23:51:18.312Z,12.03
2023-03-24T23:53:44.772Z,11.63
2023-03-24T23:56:14.818Z,13.33
2023-03-24T23:58:42.598Z,12.83
